Air Resources Laboratory banner image
Air Resources Laboratory web site National Oceanic and Atmospheric Administration (NOAA)

wv metar


KBKW 170151Z AUTO 14004KT 10SM SCT039 22/19 A3006 RMK AO2 SLP144 T02170194 TSNO
 $=
KBLF 170152Z AUTO VRB04KT 10SM FEW031 FEW080 FEW100 22/20 A3009 RMK AO2 SLP152
 T02170200=
KCRW 170154Z 00000KT 10SM TS FEW025CB BKN075 BKN095 24/23 A2995 RMK AO2 LTG
 DSNT W AND NW TSB05 SLP133 OCNL LTGIC W AND NW TS W AND NW MOV NE CB DSNT
 SW-NW VCSH VLY FG T02390228=
KEKN 170151Z AUTO 15003KT 10SM CLR 21/19 A3002 RMK AO2 SLP157 T02060194 TSNO=
KHLG 170153Z 20004KT 10SM CLR 24/20 A2992 RMK AO2 RAB03E21 SLP124 P0000
 T02440200=
KHTS 170151Z 20004KT 10SM SCT039 BKN050 OVC065 23/22 A2994 RMK AO2 LTG DSNT NE
 AND E RAE04 SLP131 P0000 T02330217=
KLWB 170155Z AUTO 06003KT 10SM CLR 21/20 A3007 RMK AO2 T02110195=
KMGW 170153Z 16004KT 10SM CLR 23/21 A2996 RMK AO2 SLP135 T02330206=
KMRB 170153Z 18003KT 10SM CLR 26/21 A2991 RMK AO2 SLP124 T02610211=
KUNI 170155Z AUTO 00000KT 10SM BKN020 BKN027 BKN034 24/24 A2992 RMK AO2 LTG
 DSNT S T02400237=
KW99 170155Z AUTO 00000KT 10SM CLR 22/21 A2996 RMK AO2 T02180206=